Qu Shan Hai — H3JA — position and weather

sailwx.info

Track history (hours):
 
Tides and Currents Weather Stations Pressure Air Temp Water Temp Dewpoint Dewpoint Depression Visibility Wind Speed Wind Dir Waves Ship Positions

Qu Shan Hai

Last reported at 2017-Nov-19 01:00 UTC. Time now 2017-Nov-19 01:15 UTC.
Position N 48°27' W 005°55'.

Length 190 m; draft 12.1 m.

Type: Cargo ship. MMSI: 353693000.

Date/timePositionNaut miles runAvg speedWind from/ knotsBaromVisibWave heightAir tempDewpointWater temp
2017-Nov-19 01:00N 48°27' W 005°55'611.8
2017-Nov-19 00:30N 48°22' W 005°58'611.6
2017-Nov-19 00:00N 48°17' W 006°02'611.3
2017-Nov-18 23:30N 48°12' W 006°06'611.0
2017-Nov-18 23:00N 48°07' W 006°10'510.7
2017-Nov-18 22:30N 48°02' W 006°14'510.4
2017-Nov-18 22:00N 47°58' W 006°18'510.4
2017-Nov-18 21:29N 47°53' W 006°21'510.1
2017-Nov-18 20:57N 47°48' W 006°25'5 9.9
2017-Nov-18 20:28N 47°44' W 006°28'5 9.9
2017-Nov-18 19:56N 47°39' W 006°31'4 9.8
2017-Nov-18 19:29N 47°35' W 006°34'5 9.9
2017-Nov-18 19:00N 47°31' W 006°37'610.9
2017-Nov-18 18:29N 47°26' W 006°41'511.4
2017-Nov-18 18:00N 47°21' W 006°45'1111.3
2017-Nov-18 17:03N 47°11' W 006°52'211.5
2017-Nov-18 16:50N 47°09' W 006°54'511.9
2017-Nov-18 16:23N 47°04' W 006°58'411.6
2017-Nov-18 16:00N 47°00' W 007°01'711.3
2017-Nov-18 15:23N 46°54' W 007°05'810.8
2017-Nov-18 14:41N 46°47' W 007°10'310.6
2017-Nov-18 14:25N 46°45' W 007°12'510.6
2017-Nov-18 13:59N 46°41' W 007°15'43010.2
2017-Nov-16 19:54N 39°46' W 009°50'410.6
2017-Nov-16 19:30N 39°42' W 009°50'510.6
2017-Nov-16 19:00N 39°37' W 009°50'710.8
2017-Nov-16 18:24N 39°30' W 009°50'410.7
2017-Nov-16 18:00N 39°26' W 009°50'510.8
2017-Nov-16 17:30N 39°21' W 009°50'511.0
2017-Nov-16 17:01N 39°15' W 009°50'611.1
2017-Nov-16 16:30N 39°10' W 009°51'611.1
2017-Nov-16 16:01N 39°04' W 009°51'510.9
2017-Nov-16 15:31N 38°59' W 009°51'611.1
2017-Nov-16 15:01N 38°53' W 009°50'611.2
2017-Nov-16 14:31N 38°48' W 009°50'611.3
2017-Nov-16 14:01N 38°42' W 009°50'611.2
2017-Nov-16 13:31N 38°36' W 009°49'611.2
2017-Nov-16 13:01N 38°31' W 009°47'611.3
2017-Nov-16 12:31N 38°26' W 009°46'611.1
2017-Nov-16 12:01N 38°20' W 009°44'611.0
2017-Nov-16 11:31N 38°15' W 009°42'611.1
2017-Nov-16 11:01N 38°09' W 009°41'511.0
2017-Nov-16 10:31N 38°04' W 009°39'611.5
2017-Nov-16 09:59N 37°58' W 009°38'611.9
2017-Nov-16 09:31N 37°53' W 009°36'611.8
2017-Nov-16 09:00N 37°47' W 009°34'611.6
2017-Nov-16 08:31N 37°41' W 009°33'611.8
2017-Nov-16 08:01N 37°35' W 009°31'612.3
2017-Nov-16 07:30N 37°29' W 009°29'712.0
2017-Nov-16 06:58N 37°23' W 009°27'511.6
2017-Nov-16 06:31N 37°18' W 009°26'611.5
2017-Nov-16 06:00N 37°12' W 009°25'611.3
2017-Nov-16 05:31N 37°07' W 009°23'510.9
2017-Nov-16 05:01N 37°01' W 009°22'611.0
2017-Nov-16 04:31N 36°56' W 009°20'611.2
2017-Nov-16 03:57N 36°51' W 009°16'511.4
2017-Nov-16 03:28N 36°47' W 009°11'4511.8
2017-Nov-15 23:39N 36°39' W 008°16'211.9
2017-Nov-15 23:30N 36°39' W 008°14'611.9
2017-Nov-15 23:00N 36°38' W 008°06'612.0
2017-Nov-15 22:30N 36°38' W 007°59'122 9.6
2017-Nov-15 09:46N 35°58' W 005°36'311.3
2017-Nov-15 09:30N 35°59' W 005°33'510.7
2017-Nov-15 09:01N 36°00' W 005°26'610.3
2017-Nov-15 08:25N 36°01' W 005°19'510.0
2017-Nov-15 07:57N 36°02' W 005°13'  
2017-Nov-11 13:55N 36°34' E 014°01'511.2
2017-Nov-11 13:30N 36°33' E 014°07'611.1
2017-Nov-11 12:58N 36°31' E 014°14'611.2
2017-Nov-11 12:24N 36°29' E 014°21'511.2
2017-Nov-11 11:56N 36°28' E 014°27'511.1
2017-Nov-11 11:30N 36°27' E 014°33'611.1
2017-Nov-11 11:01N 36°25' E 014°40'811.5
2017-Nov-11 10:18N 36°23' E 014°50'311.4
2017-Nov-11 10:00N 36°22' E 014°54'45610.4
2017-Nov-09 14:18N 37°43' E 024°16'912.0
2017-Nov-09 13:34N 37°49' E 024°24'512.0
2017-Nov-09 13:07N 37°52' E 024°29'212.1
2017-Nov-09 12:58N 37°54' E 024°31'  
Track history (hours):
 
Tides and Currents Weather Stations Pressure Air Temp Water Temp Dewpoint Dewpoint Depression Visibility Wind Speed Wind Dir Waves Ship Positions

Qu Shan Hai

Last reported at 2017-Nov-19 01:00 UTC. Time now 2017-Nov-19 01:15 UTC.
Position N 48°27' W 005°55'.

Length 190 m; draft 12.1 m.

Type: Cargo ship. MMSI: 353693000.

Date/timePositionNaut miles runAvg speedWind from/ knotsBaromVisibWave heightAir tempDewpointWater temp
2017-Nov-19 01:00N 48°27' W 005°55'611.8
2017-Nov-19 00:30N 48°22' W 005°58'611.6
2017-Nov-19 00:00N 48°17' W 006°02'611.3
2017-Nov-18 23:30N 48°12' W 006°06'611.0
2017-Nov-18 23:00N 48°07' W 006°10'510.7
2017-Nov-18 22:30N 48°02' W 006°14'510.4
2017-Nov-18 22:00N 47°58' W 006°18'510.4
2017-Nov-18 21:29N 47°53' W 006°21'510.1
2017-Nov-18 20:57N 47°48' W 006°25'5 9.9
2017-Nov-18 20:28N 47°44' W 006°28'5 9.9
2017-Nov-18 19:56N 47°39' W 006°31'4 9.8
2017-Nov-18 19:29N 47°35' W 006°34'5 9.9
2017-Nov-18 19:00N 47°31' W 006°37'610.9
2017-Nov-18 18:29N 47°26' W 006°41'511.4
2017-Nov-18 18:00N 47°21' W 006°45'1111.3
2017-Nov-18 17:03N 47°11' W 006°52'211.5
2017-Nov-18 16:50N 47°09' W 006°54'511.9
2017-Nov-18 16:23N 47°04' W 006°58'411.6
2017-Nov-18 16:00N 47°00' W 007°01'711.3
2017-Nov-18 15:23N 46°54' W 007°05'810.8
2017-Nov-18 14:41N 46°47' W 007°10'310.6
2017-Nov-18 14:25N 46°45' W 007°12'510.6
2017-Nov-18 13:59N 46°41' W 007°15'43010.2
2017-Nov-16 19:54N 39°46' W 009°50'410.6
2017-Nov-16 19:30N 39°42' W 009°50'510.6
2017-Nov-16 19:00N 39°37' W 009°50'710.8
2017-Nov-16 18:24N 39°30' W 009°50'410.7
2017-Nov-16 18:00N 39°26' W 009°50'510.8
2017-Nov-16 17:30N 39°21' W 009°50'511.0
2017-Nov-16 17:01N 39°15' W 009°50'611.1
2017-Nov-16 16:30N 39°10' W 009°51'611.1
2017-Nov-16 16:01N 39°04' W 009°51'510.9
2017-Nov-16 15:31N 38°59' W 009°51'611.1
2017-Nov-16 15:01N 38°53' W 009°50'611.2
2017-Nov-16 14:31N 38°48' W 009°50'611.3
2017-Nov-16 14:01N 38°42' W 009°50'611.2
2017-Nov-16 13:31N 38°36' W 009°49'611.2
2017-Nov-16 13:01N 38°31' W 009°47'611.3
2017-Nov-16 12:31N 38°26' W 009°46'611.1
2017-Nov-16 12:01N 38°20' W 009°44'611.0
2017-Nov-16 11:31N 38°15' W 009°42'611.1
2017-Nov-16 11:01N 38°09' W 009°41'511.0
2017-Nov-16 10:31N 38°04' W 009°39'611.5
2017-Nov-16 09:59N 37°58' W 009°38'611.9
2017-Nov-16 09:31N 37°53' W 009°36'611.8
2017-Nov-16 09:00N 37°47' W 009°34'611.6
2017-Nov-16 08:31N 37°41' W 009°33'611.8
2017-Nov-16 08:01N 37°35' W 009°31'612.3
2017-Nov-16 07:30N 37°29' W 009°29'712.0
2017-Nov-16 06:58N 37°23' W 009°27'511.6
2017-Nov-16 06:31N 37°18' W 009°26'611.5
2017-Nov-16 06:00N 37°12' W 009°25'611.3
2017-Nov-16 05:31N 37°07' W 009°23'510.9
2017-Nov-16 05:01N 37°01' W 009°22'611.0
2017-Nov-16 04:31N 36°56' W 009°20'611.2
2017-Nov-16 03:57N 36°51' W 009°16'511.4
2017-Nov-16 03:28N 36°47' W 009°11'4511.8
2017-Nov-15 23:39N 36°39' W 008°16'211.9
2017-Nov-15 23:30N 36°39' W 008°14'611.9
2017-Nov-15 23:00N 36°38' W 008°06'612.0
2017-Nov-15 22:30N 36°38' W 007°59'122 9.6
2017-Nov-15 09:46N 35°58' W 005°36'311.3
2017-Nov-15 09:30N 35°59' W 005°33'510.7
2017-Nov-15 09:01N 36°00' W 005°26'610.3
2017-Nov-15 08:25N 36°01' W 005°19'510.0
2017-Nov-15 07:57N 36°02' W 005°13'  
2017-Nov-11 13:55N 36°34' E 014°01'511.2
2017-Nov-11 13:30N 36°33' E 014°07'611.1
2017-Nov-11 12:58N 36°31' E 014°14'611.2
2017-Nov-11 12:24N 36°29' E 014°21'511.2
2017-Nov-11 11:56N 36°28' E 014°27'511.1
2017-Nov-11 11:30N 36°27' E 014°33'611.1
2017-Nov-11 11:01N 36°25' E 014°40'811.5
2017-Nov-11 10:18N 36°23' E 014°50'311.4
2017-Nov-11 10:00N 36°22' E 014°54'45610.4
2017-Nov-09 14:18N 37°43' E 024°16'912.0
2017-Nov-09 13:34N 37°49' E 024°24'512.0
2017-Nov-09 13:07N 37°52' E 024°29'212.1
2017-Nov-09 12:58N 37°54' E 024°31'  

Dump ship's entire track history